Florence, Oregon
Current Conditions -  °F | °C
As of 4:35 AM on Sunday 23 Nov 2014 (Local Time) from KOTH Reporting Station
Broken Clouds Broken Clouds  
Wind Chill: 43°   Ceiling: 3800
Heat Index: 46°   Visibility: 10mi
Dew Point: 46°   Wind: 7mph
Humidity: 100%   Direction: 150°SSE
Pressure: 30.36"   Gusts: NA
Location:  43.97°N, 124.1°W
Report Text: KOTH 231235Z 15006KT 10SM BKN038 08/08 A3036 RMK AO1
Loading
Personal Weather Stations






























Interactive Weather Map New forecast layout! Learn more

10-Day Weather Forecast

Advertisements
Track Severe Weather on mobile